x

Neah Bay, - 6nm North Of Cape Flattery, Wa (traffic Separation Lighted Buoy) (46087) Wave Buoy

1:20 - Wed 18th Jan 2017 All times are PST. -8 hours from GMT.

  • Sig Wave height 11.5ft
  • Swell Direction
  • Peak Period 13s
  • Average Period 9s
  • Wind
    22mph, 25mph gusts
  • Sea Temp 47°f
  • Air Temp 50°f
  • Sea Pressure 989mb
  • Neah Bay, - 6nm North Of Cape Flattery, Wa     (traffic Separation Lighted Buoy)
  • Neah Bay, - 6nm North Of Cape Flattery, Wa     (traffic Separation Lighted Buoy)

More Historic Weather Station data

Upgrade to MSW Pro to gain access to the past 30 days of data for over 8000 Wavebouys and Weather Stations around the globe.

Join Pro

Comparision Forecast

View Surf forecast
   
mer. 01/18 1:20 11.5ft 13s 9s 22 25 mph 989mb 47f 50f
12:50 10ft 13s 8s 25 29 mph 988.8mb 47f 50f
12:20 10ft 13s 8s 22 27 mph 988.8mb 47f 50f
11:50 11ft 13s 8s 27 29 mph 988.7mb 47f 51f
11:20 10.5ft 13s 7s 36 43 mph 987.9mb 48f 52f
10:50 10ft 11s 7s 36 45 mph 987.5mb 48f 51f
10:20 10.5ft 12s 7s 34 47 mph 986.9mb 48f 53f
9:50 11ft 13s 8s 34 45 mph 986.4mb 48f 53f
9:20 10ft 13s 8s 34 43 mph 986mb 48f 53f
8:50 10ft 12s 9s 27 36 mph 986.1mb 48f 48f
8:20 9ft 13s 8s 22 29 mph 986.1mb 48f 48f
7:50 9ft 13s 8s 22 27 mph 986.3mb 48f 48f
7:20 9ft 14s 9s 22 27 mph 986.2mb 48f 48f
6:50 9.5ft 14s 8s 20 25 mph 987mb 48f 48f
6:20 10ft 11s 9s 13 18 mph 988.1mb 48f 47f
5:50 10ft 13s 9s 16 20 mph 988.6mb 48f 49f
5:20 13ft 14s 10s 11 16 mph 989.3mb 48f 49f
4:50 11.5ft 13s 9s 9 11 mph 990.1mb 47f 50f
4:20 9.5ft 14s 8s 13 16 mph 990.7mb 47f 50f
3:50 11ft 14s 9s 22 29 mph 990.8mb 47f 50f
3:20 11ft 13s 8s 27 34 mph 991mb 47f 50f
2:50 11.5ft 13s 8s 27 34 mph 991mb 47f 50f
2:20 13ft 14s 8s 31 36 mph 991.4mb 47f 50f
1:50 13ft 11s 9s 31 40 mph 991.1mb 47f 51f
1:20 12ft 14s 8s 27 31 mph 991.7mb 47f 51f
12:50 12.5ft 11s 9s 31 38 mph 992mb 47f 51f
12:20 13ft 12s 9s 31 36 mph 992.1mb 47f 52f
mar. 01/17 11:50 13.5ft 11s 9s 29 34 mph 992.4mb 47f 51f
11:20 13ft 13s 9s 29 38 mph 992.2mb 47f 51f
10:50 14.5ft 14s 9s 34 43 mph 992.1mb 47f 51f
10:20 14.5ft 11s 9s 34 43 mph 992.1mb 47f 51f
9:50 13ft 14s 8s 34 43 mph 991.9mb 47f 52f
9:20 15.5ft 15s 9s 36 43 mph 991.5mb 47f 51f
8:50 14ft 12s 9s 31 40 mph 991.4mb 47f 51f
8:20 15.5ft 15s 9s 34 43 mph 990.6mb 47f 52f
7:50 13ft 12s 9s 34 49 mph 990.4mb 47f 52f
7:20 13ft 14s 9s 38 47 mph 990.3mb 47f 52f
6:50 14ft 15s 8s 36 47 mph 990.3mb 47f 52f
6:20 14ft 12s 8s 38 49 mph 990.1mb 47f 52f
5:20 15ft 11s 8s 38 47 mph 990.3mb 47f 52f
4:50 14ft 12s 8s 36 43 mph 991mb 47f 52f
4:20 14ft 15s 8s 38 49 mph 991.6mb 47f 52f
3:50 13ft 15s 9s 27 38 mph 993.3mb 47f 51f
3:20 14ft 12s 8s 22 29 mph 994mb 47f 49f
2:50 14ft 15s 9s 25 34 mph 994.7mb 47f 51f
2:20 14.5ft 15s 9s 27 36 mph 995.8mb 47f 51f
1:50 14ft 14s 9s 27 38 mph 996.8mb 47f 51f
1:20 15ft 12s 9s 25 31 mph 998.2mb 47f 51f
12:50 14ft 13s 9s 25 31 mph 999.5mb 47f 52f
12:20 13ft 12s 8s 27 36 mph 1000.4mb 47f 52f
11:50 14.5ft 11s 8s 25 34 mph 1001.5mb 47f 51f
11:20 14ft 11s 8s 29 36 mph 1001.2mb 47f 52f
10:50 12.5ft 16s 8s 31 43 mph 1001mb 47f 51f
10:20 13.5ft 14s 8s 31 40 mph 1001.1mb 47f 51f
9:50 12ft 14s 8s 34 43 mph 1000.9mb 47f 51f
9:20 13ft 8s 8s 29 40 mph 1001mb 47f 52f
8:50 14ft 12s 8s 29 38 mph 1000.7mb 47f 51f
8:20 13ft 16s 8s 25 36 mph 1000.9mb 47f 51f
7:50 13ft 14s 8s 27 36 mph 1000.8mb 47f 52f
7:20 13ft 17s 8s 27 34 mph 1001.4mb 47f 50f
6:50 12ft 16s 8s 13 20 mph 1002mb 46f 46f
6:20 12ft 16s 8s 18 27 mph 1002.4mb 46f 45f
5:50 12ft 13s 8s 18 27 mph 1003mb 46f 45f
5:20 12ft 11s 8s 16 25 mph 1003.9mb 46f 45f
4:50 11ft 11s 8s 20 27 mph 1004.1mb 46f 45f
4:20 12ft 17s 8s 16 20 mph 1004.7mb 46f 46f
3:50 11ft 17s 8s 20 25 mph 1004.9mb 46f 47f
3:20 10ft 8s 8s 22 29 mph 1005.5mb 46f 47f
2:50 11ft 16s 8s 22 29 mph 1006.4mb 46f 47f
2:20 10.5ft 16s 8s 18 25 mph 1007.6mb 46f 45f
1:50 10ft 16s 8s 16 20 mph 1008.9mb 46f 45f
1:20 9.5ft 16s 8s 18 20 mph 1009.1mb 46f 45f
12:50 9ft 17s 8s 22 29 mph 1008.9mb 46f 44f
12:20 8.5ft 12s 8s 20 27 mph 1009.3mb 46f 45f
lun. 01/16 11:50 8.5ft 9s 7s 22 27 mph 1009.5mb 46f 45f
11:20 8ft 8s 7s 22 27 mph 1009.8mb 47f 45f
10:50 7.5ft 12s 7s 25 29 mph 1010mb 47f 45f
10:20 8.5ft 13s 7s 25 29 mph 1010.1mb 47f 45f
9:50 8ft 12s 7s 22 27 mph 1010.6mb 47f 45f
9:20 8ft 9s 7s 25 29 mph 1010.3mb 46f 44f
8:50 8ft 13s 8s 22 29 mph 1011mb 46f 44f
8:20 7ft 13s 7s 18 22 mph 1011.3mb 46f 47f
7:50 7ft 11s 7s 18 25 mph 1011.4mb 46f 47f
7:20 7ft 12s 7s 18 20 mph 1012.1mb 46f 46f
6:50 8ft 14s 8s 16 20 mph 1012.9mb 46f 46f
6:20 7ft 14s 8s 16 20 mph 1013.3mb 46f 43f
5:50 7ft 13s 8s 16 20 mph 1013.7mb 46f 43f
5:20 7ft 12s 8s 16 20 mph 1013.8mb 46f 43f
4:50 6.5ft 14s 7s 11 13 mph 1014.8mb 46f 44f
4:20 6.5ft 15s 7s 18 22 mph 1014.2mb 46f 44f
3:50 6.5ft 11s 7s 18 22 mph 1013.9mb 46f 44f
3:20 6.5ft 14s 7s 22 27 mph 1013.3mb 46f 44f
2:50 6.5ft 13s 7s 22 27 mph 1013.7mb 46f 44f
2:20 7ft 14s 8s 22 27 mph 1014mb 46f 43f
1:50 6ft 12s 7s 22 27 mph 1015.2mb 46f 43f
1:20 6ft 14s 7s 20 25 mph 1016.1mb 46f 43f
12:50 6ft 14s 7s 22 27 mph 1016.7mb 46f 43f
12:20 6ft 14s 7s 25 29 mph 1017mb 46f 43f
11:50 7ft 14s 7s 22 27 mph 1017.6mb 46f 43f
11:20 6ft 15s 7s 22 27 mph 1018.5mb 46f 43f
10:50 7ft 14s 7s 22 27 mph 1018.7mb 46f 43f
10:20 6ft 13s 7s 22 27 mph 1019.2mb 46f 43f
9:50 6ft 11s 7s 22 27 mph 1019.8mb 46f 43f
9:20 6.5ft 15s 7s 22 27 mph 1019.1mb 46f 43f
8:50 6.5ft 14s 8s 22 27 mph 1019.4mb 46f 43f
8:20 6ft 12s 7s 20 25 mph 1019.6mb 46f 43f
7:50 6ft 15s 8s 22 27 mph 1019.3mb 46f 43f
7:20 7ft 13s 8s 20 25 mph 1020.3mb 46f 43f
6:50 6ft 14s 9s 20 22 mph 1020.6mb 46f 43f
6:20 6.5ft 14s 9s 20 25 mph 1020.5mb 46f 43f
5:50 6ft 15s 8s 18 22 mph 1021.2mb 46f 43f
5:20 6ft 15s 8s 16 22 mph 1021.6mb 46f 42f
4:50 6.5ft 14s 9s 20 25 mph 1021.6mb 46f 44f
4:20 7ft 14s 9s 20 25 mph 1022mb 46f 43f
3:50 6ft 15s 8s 20 22 mph 1022.5mb 46f 43f
3:20 7ft 15s 9s 18 22 mph 1022.7mb 46f 43f
2:50 7ft 14s 9s 18 22 mph 1022.9mb 46f 43f
2:20 7ft 15s 8s 18 22 mph 1023.6mb 46f 43f
1:50 7ft 13s 8s 20 25 mph 1023.4mb 46f 43f
1:20 7ft 12s 8s 20 25 mph 1022.9mb 46f 43f
12:50 6.5ft 15s 8s 20 25 mph 1023.1mb 46f 43f
12:20 8ft 12s 10s 20 25 mph 1023.2mb 46f 43f
dim. 01/15 11:50 8ft 13s 9s 20 25 mph 1024.5mb 46f 43f
11:20 9ft 16s 10s 20 25 mph 1024.3mb 46f 43f
10:50 8ft 15s 9s 20 22 mph 1024.3mb 46f 43f
10:20 8.5ft 13s 9s 22 29 mph 1024.2mb 46f 43f
9:50 7ft 13s 9s 20 25 mph 1024.9mb 46f 43f
9:20 7.5ft 11s 10s 20 25 mph 1024.8mb 46f 43f
8:50 8ft 14s 10s 18 25 mph 1025.4mb 46f 43f
8:20 8ft 12s 10s 20 25 mph 1025.2mb 46f 43f
7:50 8ft 13s 10s 18 22 mph 1024.7mb 46f 43f
7:20 8ft 16s 10s 20 25 mph 1024.4mb 46f 43f
6:50 7ft 12s 9s 18 22 mph 1024.5mb 46f 43f
6:20 7.5ft 17s 9s 16 20 mph 1024.8mb 46f 43f
5:50 6.5ft 13s 9s 18 20 mph 1024.2mb 46f 43f
5:20 7.5ft 17s 9s 16 20 mph 1024.3mb 46f 43f
4:50 7.5ft 13s 9s 16 20 mph 1024.1mb 46f 43f
4:20 7.5ft 12s 9s 16 20 mph 1024mb 46f 43f
3:50 8ft 12s 10s 16 18 mph 1024.5mb 46f 43f
3:20 7ft 17s 9s 13 16 mph 1024.8mb 46f 42f
2:50 7.5ft 17s 10s 13 16 mph 1024.8mb 46f 42f
2:20 7.5ft 11s 10s 11 13 mph 1024.8mb 46f 42f
1:50 7.5ft 12s 10s 11 16 mph 1024.6mb 46f 42f
1:20 7.5ft 10s 10s 11 16 mph 1024.8mb 46f 42f
12:50 7ft 13s 10s 9 11 mph 1025.6mb 46f 41f
12:20 7ft 12s 10s 11 16 mph 1025.6mb 46f 41f
11:50 6ft 12s 9s 11 13 mph 1025.8mb 45f 41f
11:20 6.5ft 11s 9s 13 16 mph 1025.6mb 45f 41f
10:50 6.5ft 12s 9s 13 16 mph 1025.7mb 45f 40f
10:20 6ft 10s 9s 11 16 mph 1025.9mb 45f 41f
9:50 6ft 11s 9s 11 13 mph 1025.9mb 45f 40f
9:20 5.5ft 11s 8s 11 16 mph 1025.7mb 45f 40f
8:50 6ft 10s 8s 13 16 mph 1025.6mb 45f 41f
8:20 5.5ft 10s 8s 16 18 mph 1025.1mb 45f 41f
7:50 5ft 10s 8s 16 20 mph 1025mb 45f 41f
7:20 5.5ft 11s 8s 16 20 mph 1025.1mb 45f 40f
6:50 5ft 11s 8s 16 18 mph 1025mb 45f 40f
6:20 5.5ft 10s 8s 16 18 mph 1024.8mb 45f 40f
5:50 5ft 11s 8s 16 20 mph 1025mb 45f 40f
5:20 5ft 10s 7s 16 22 mph 1025.1mb 45f 40f
4:50 5ft 11s 8s 16 20 mph 1025.1mb 45f 40f
4:20 5.5ft 10s 8s 18 22 mph 1025.1mb 45f 41f
3:50 5ft 11s 8s 18 22 mph 1025.2mb 46f 41f
3:20 6ft 10s 8s 18 20 mph 1025.2mb 46f 42f
2:50 5.5ft 10s 8s 16 18 mph 1025.6mb 46f 41f
2:20 6ft 10s 8s 13 18 mph 1025.5mb 46f 41f
1:50 6ft 11s 8s 13 16 mph 1025.5mb 46f 41f
1:20 5.5ft 11s 7s 18 22 mph 1024.5mb 46f 41f
12:50 6ft 10s 7s 18 22 mph 1024.4mb 46f 41f
12:20 6ft 10s 7s 13 18 mph 1025.2mb 46f 41f
sam. 01/14 11:50 6ft 11s 7s 16 20 mph 1025.1mb 46f 41f
11:20 7ft 10s 8s 20 22 mph 1025mb 46f 41f
10:50 7ft 10s 8s 20 25 mph 1024.8mb 45f 41f